createdAt,value
2018-03-20T00:02:06.636Z,16.87
2018-03-20T00:04:34.948Z,15.70
2018-03-20T00:07:02.481Z,16.20
2018-03-20T00:09:30.004Z,16.62
2018-03-20T00:11:57.515Z,15.18
2018-03-20T00:14:25.080Z,16.27
2018-03-20T00:16:52.600Z,16.62
2018-03-20T00:19:20.878Z,16.80
2018-03-20T00:21:49.196Z,16.23
2018-03-20T00:24:16.706Z,16.55
2018-03-20T00:26:45.021Z,16.87
2018-03-20T00:29:12.527Z,16.45
2018-03-20T00:31:40.055Z,15.65
2018-03-20T00:34:07.571Z,15.45
2018-03-20T00:36:35.858Z,16.75
2018-03-20T00:39:03.374Z,15.13
2018-03-20T00:41:30.903Z,15.18
2018-03-20T00:43:58.408Z,16.12
2018-03-20T00:46:26.680Z,15.05
2018-03-20T00:48:54.230Z,15.57
2018-03-20T00:51:21.719Z,16.02
2018-03-20T00:53:49.232Z,14.20
2018-03-20T00:56:16.751Z,15.52
2018-03-20T00:58:44.279Z,15.82
2018-03-20T01:01:12.541Z,14.85
2018-03-20T01:03:40.066Z,16.58
2018-03-20T01:06:07.559Z,15.93
2018-03-20T01:08:35.103Z,16.35
2018-03-20T01:11:02.643Z,16.08
2018-03-20T01:13:30.170Z,15.35
2018-03-20T01:15:57.699Z,16.35
2018-03-20T01:18:25.994Z,16.10
2018-03-20T01:20:54.297Z,17.52
2018-03-20T01:23:21.810Z,16.80
2018-03-20T01:25:49.335Z,15.32
2018-03-20T01:28:16.887Z,16.40
2018-03-20T01:30:44.422Z,16.52
2018-03-20T01:33:11.946Z,16.08
2018-03-20T01:35:39.453Z,16.10
2018-03-20T01:38:06.966Z,17.08
2018-03-20T01:40:34.483Z,16.33
2018-03-20T01:43:01.993Z,17.17
2018-03-20T01:45:30.267Z,16.60
2018-03-20T01:47:57.800Z,15.90
2018-03-20T01:50:25.319Z,15.65
2018-03-20T01:53:04.549Z,15.57
2018-03-20T01:55:32.047Z,16.33
2018-03-20T01:57:59.574Z,16.08
2018-03-20T02:00:27.081Z,17.33
2018-03-20T02:02:54.594Z,16.62
2018-03-20T02:05:22.094Z,16.65
2018-03-20T02:07:49.619Z,16.80
2018-03-20T02:10:17.152Z,16.10
2018-03-20T02:12:44.679Z,15.52
2018-03-20T02:15:12.190Z,15.10
2018-03-20T02:17:39.691Z,16.80
2018-03-20T02:20:07.987Z,15.77
2018-03-20T02:22:35.500Z,16.30
2018-03-20T02:25:03.043Z,16.77
2018-03-20T02:27:30.552Z,16.60
2018-03-20T02:29:58.082Z,17.42
2018-03-20T02:32:25.581Z,18.58
2018-03-20T02:34:53.096Z,18.70
2018-03-20T02:37:20.627Z,19.80
2018-03-20T02:39:48.141Z,19.15
2018-03-20T02:42:15.653Z,19.27
2018-03-20T02:44:43.175Z,18.95
2018-03-20T02:47:10.688Z,18.80
2018-03-20T02:49:38.223Z,18.98
2018-03-20T02:52:06.533Z,19.15
2018-03-20T02:54:34.084Z,19.45
2018-03-20T02:57:01.637Z,19.30
2018-03-20T02:59:29.172Z,20.70
2018-03-20T03:01:56.699Z,20.37
2018-03-20T03:04:24.984Z,21.87
2018-03-20T03:06:52.507Z,21.77
2018-03-20T03:09:20.024Z,22.23
2018-03-20T03:11:47.551Z,21.98
2018-03-20T03:14:15.064Z,21.40
2018-03-20T03:16:42.592Z,21.80
2018-03-20T03:19:10.095Z,22.13
2018-03-20T03:21:37.650Z,21.62
2018-03-20T03:24:05.166Z,22.05
2018-03-20T03:26:32.675Z,21.85
2018-03-20T03:29:00.196Z,22.15
2018-03-20T03:31:27.702Z,20.52
2018-03-20T03:33:55.998Z,21.23
2018-03-20T03:36:23.503Z,21.67
2018-03-20T03:38:51.078Z,23.77
2018-03-20T03:41:18.607Z,22.02
2018-03-20T03:43:46.124Z,23.70
2018-03-20T03:46:14.426Z,21.70
2018-03-20T03:48:41.999Z,21.85
2018-03-20T03:51:09.531Z,22.27
2018-03-20T03:53:37.844Z,22.35
2018-03-20T03:56:05.357Z,22.42
2018-03-20T03:58:33.628Z,22.25
2018-03-20T04:01:01.910Z,21.80
2018-03-20T04:03:30.197Z,22.60
2018-03-20T04:05:57.708Z,22.25
2018-03-20T04:08:25.261Z,22.52
2018-03-20T04:10:52.794Z,22.98
2018-03-20T04:13:20.320Z,21.45
2018-03-20T04:15:48.623Z,21.83
2018-03-20T04:18:16.165Z,22.42
2018-03-20T04:20:43.675Z,21.75
2018-03-20T04:23:11.194Z,22.65
2018-03-20T04:25:38.711Z,22.10
2018-03-20T04:28:06.247Z,21.98
2018-03-20T04:30:33.779Z,22.05
2018-03-20T04:33:01.290Z,22.30
2018-03-20T04:35:28.816Z,21.60
2018-03-20T04:37:56.328Z,20.98
2018-03-20T04:40:24.619Z,22.70
2018-03-20T04:42:52.125Z,21.45
2018-03-20T04:45:19.636Z,22.20
2018-03-20T04:47:47.159Z,22.73
2018-03-20T04:50:14.700Z,22.00
2018-03-20T04:52:42.242Z,21.77
2018-03-20T04:55:09.785Z,20.95
2018-03-20T04:57:37.288Z,22.45
2018-03-20T05:00:04.805Z,22.25
2018-03-20T05:02:32.336Z,20.90
2018-03-20T05:04:59.851Z,20.83
2018-03-20T05:07:27.377Z,22.15
2018-03-20T05:09:54.896Z,20.67
2018-03-20T05:12:23.174Z,18.73
2018-03-20T05:14:51.468Z,18.87
2018-03-20T05:17:18.983Z,19.25
2018-03-20T05:19:52.185Z,20.75
2018-03-20T05:22:25.369Z,19.90
2018-03-20T05:24:52.913Z,19.95
2018-03-20T05:27:20.439Z,18.45
2018-03-20T05:29:47.951Z,18.60
2018-03-20T05:32:15.727Z,20.77
2018-03-20T05:34:44.003Z,20.35
2018-03-20T05:37:12.272Z,20.23
2018-03-20T05:39:39.805Z,20.15
2018-03-20T05:42:07.312Z,19.15
2018-03-20T05:44:35.610Z,20.48
2018-03-20T05:50:06.777Z,19.15
2018-03-20T05:52:34.318Z,21.12
2018-03-20T05:55:01.830Z,20.67
2018-03-20T05:57:29.361Z,20.80
2018-03-20T05:59:56.866Z,22.25
2018-03-20T06:02:24.389Z,21.52
2018-03-20T06:04:51.914Z,22.90
2018-03-20T06:07:19.418Z,22.42
2018-03-20T06:09:46.952Z,23.60
2018-03-20T06:12:14.467Z,23.10
2018-03-20T06:14:42.763Z,22.62
2018-03-20T06:17:10.282Z,21.02
2018-03-20T06:19:37.785Z,21.30
2018-03-20T06:22:05.303Z,21.87
2018-03-20T06:24:32.858Z,20.85
2018-03-20T06:27:00.369Z,21.15
2018-03-20T06:29:27.940Z,19.85
2018-03-20T06:31:55.480Z,19.95
2018-03-20T06:34:23.004Z,20.98
2018-03-20T06:36:50.533Z,22.02
2018-03-20T06:39:18.065Z,22.25
2018-03-20T06:41:45.618Z,21.98
2018-03-20T06:44:13.154Z,21.42
2018-03-20T06:46:41.444Z,20.45
2018-03-20T06:49:09.000Z,19.98
2018-03-20T06:51:36.572Z,20.08
2018-03-20T06:54:04.089Z,18.25
2018-03-20T06:56:31.579Z,18.02
2018-03-20T06:58:59.118Z,17.25
2018-03-20T07:01:27.402Z,17.40
2018-03-20T07:03:54.927Z,17.17
2018-03-20T07:06:22.514Z,16.50
2018-03-20T07:08:50.808Z,16.27
2018-03-20T07:11:18.354Z,18.25
2018-03-20T07:13:46.616Z,16.30
2018-03-20T07:16:14.906Z,17.52
2018-03-20T07:18:43.202Z,17.87
2018-03-20T07:21:10.702Z,17.48
2018-03-20T07:23:38.227Z,18.80
2018-03-20T07:26:05.752Z,18.62
2018-03-20T07:28:34.031Z,16.60
2018-03-20T07:31:02.292Z,16.85
2018-03-20T07:33:29.842Z,17.83
2018-03-20T07:35:57.369Z,18.67
2018-03-20T07:38:24.874Z,18.08
2018-03-20T07:40:53.210Z,19.73
2018-03-20T07:43:20.715Z,17.98
2018-03-20T07:45:49.024Z,18.40
2018-03-20T07:48:16.618Z,17.83
2018-03-20T07:50:44.143Z,18.33
2018-03-20T07:53:11.676Z,16.90
2018-03-20T07:55:39.939Z,17.75
2018-03-20T07:58:07.511Z,18.70
2018-03-20T08:00:35.788Z,18.50
2018-03-20T08:03:04.101Z,17.35
2018-03-20T08:05:31.622Z,16.25
2018-03-20T08:07:59.892Z,17.40
2018-03-20T08:10:28.194Z,16.98
2018-03-20T08:12:55.731Z,16.55
2018-03-20T08:15:24.006Z,17.25
2018-03-20T08:17:52.303Z,16.20
2018-03-20T08:20:19.822Z,15.77
2018-03-20T08:22:47.365Z,16.75
2018-03-20T08:25:14.895Z,16.33
2018-03-20T08:27:42.416Z,16.92
2018-03-20T08:30:10.715Z,15.50
2018-03-20T08:32:38.256Z,16.08
2018-03-20T08:35:06.527Z,14.98
2018-03-20T08:37:34.811Z,15.05
2018-03-20T08:40:03.105Z,14.68
2018-03-20T08:42:30.678Z,14.00
2018-03-20T08:44:58.216Z,13.85
2018-03-20T08:47:25.756Z,13.40
2018-03-20T08:49:54.072Z,13.43
2018-03-20T08:52:21.559Z,13.05
2018-03-20T08:54:49.110Z,12.40
2018-03-20T08:57:16.608Z,12.70
2018-03-20T08:59:44.905Z,13.18
2018-03-20T09:02:12.427Z,12.93
2018-03-20T09:04:39.916Z,13.40
2018-03-20T09:07:07.455Z,13.62
2018-03-20T09:09:35.731Z,11.48
2018-03-20T09:12:03.327Z,13.05
2018-03-20T09:14:30.835Z,12.32
2018-03-20T09:16:58.347Z,13.00
2018-03-20T09:19:25.879Z,12.32
2018-03-20T09:21:54.163Z,12.20
2018-03-20T09:24:21.682Z,13.02
2018-03-20T09:26:49.190Z,11.75
2018-03-20T09:29:16.719Z,11.90
2018-03-20T09:31:44.984Z,10.45
2018-03-20T09:34:12.496Z,10.70
2018-03-20T09:36:39.994Z,10.65
2018-03-20T09:39:07.503Z,11.48
2018-03-20T09:41:35.010Z,10.57
2018-03-20T09:44:02.545Z,11.05
2018-03-20T09:46:30.060Z,11.18
2018-03-20T09:48:58.434Z,11.32
2018-03-20T09:51:25.936Z,10.70
2018-03-20T09:53:53.459Z,11.65
2018-03-20T09:56:20.993Z,12.75
2018-03-20T09:58:48.483Z,12.48
2018-03-20T10:01:16.005Z,13.10
2018-03-20T10:03:43.516Z,12.80
2018-03-20T10:06:11.063Z,12.32
2018-03-20T10:08:38.593Z,12.32
2018-03-20T10:11:06.922Z,11.35
2018-03-20T10:13:34.460Z,12.40
2018-03-20T10:16:01.978Z,11.12
2018-03-20T10:18:29.519Z,11.60
2018-03-20T10:20:57.025Z,11.80
2018-03-20T10:23:24.555Z,11.40
2018-03-20T10:25:52.070Z,11.75
2018-03-20T10:28:19.604Z,12.32
2018-03-20T10:30:47.148Z,11.82
2018-03-20T10:33:15.418Z,11.80
2018-03-20T10:35:42.991Z,11.48
2018-03-20T10:38:10.522Z,12.68
2018-03-20T10:40:38.036Z,11.38
2018-03-20T10:43:05.568Z,11.30
2018-03-20T10:45:33.086Z,11.63
2018-03-20T10:48:00.619Z,11.80
2018-03-20T10:50:28.156Z,11.60
2018-03-20T10:52:55.667Z,11.20
2018-03-20T10:55:23.173Z,11.25
2018-03-20T10:57:50.715Z,11.57
2018-03-20T11:00:24.796Z,11.38
2018-03-20T11:02:52.351Z,11.90
2018-03-20T11:05:19.862Z,11.85
2018-03-20T11:07:47.403Z,11.20
2018-03-20T11:10:15.719Z,11.23
2018-03-20T11:12:43.315Z,11.90
2018-03-20T11:15:10.814Z,11.15
2018-03-20T11:17:38.353Z,10.80
2018-03-20T11:20:05.851Z,11.95
2018-03-20T11:22:33.372Z,12.32
2018-03-20T11:25:01.817Z,11.55
2018-03-20T11:27:29.341Z,11.43
2018-03-20T11:29:56.936Z,11.97
2018-03-20T11:32:24.424Z,11.00
2018-03-20T11:34:52.703Z,10.30
2018-03-20T11:37:20.243Z,10.52
2018-03-20T11:39:47.798Z,9.20
2018-03-20T11:42:15.352Z,8.90
2018-03-20T11:44:42.854Z,8.80
2018-03-20T11:47:10.366Z,8.13
2018-03-20T11:49:37.888Z,9.70
2018-03-20T11:52:05.414Z,9.25
2018-03-20T11:54:33.723Z,9.20
2018-03-20T11:57:01.259Z,9.10
2018-03-20T11:59:28.770Z,9.82
2018-03-20T12:01:56.280Z,8.82
2018-03-20T12:04:23.820Z,9.00
2018-03-20T12:06:52.129Z,9.45
2018-03-20T12:09:31.713Z,9.63
2018-03-20T12:11:59.252Z,10.65
2018-03-20T12:14:26.773Z,9.82
2018-03-20T12:16:54.306Z,10.73
2018-03-20T12:19:21.819Z,9.88
2018-03-20T12:21:49.388Z,9.27
2018-03-20T12:24:16.953Z,9.90
2018-03-20T12:26:44.494Z,9.60
2018-03-20T12:29:12.012Z,9.45
2018-03-20T12:31:40.293Z,8.20
2018-03-20T12:34:08.631Z,9.90
2018-03-20T12:36:36.139Z,9.50
2018-03-20T12:39:03.654Z,9.50
2018-03-20T12:41:31.171Z,9.25
2018-03-20T12:43:58.697Z,9.23
2018-03-20T12:46:26.970Z,8.90
2018-03-20T12:48:55.291Z,9.07
2018-03-20T12:51:22.828Z,10.02
2018-03-20T12:53:50.337Z,9.10
2018-03-20T12:56:17.877Z,8.85
2018-03-20T12:58:45.411Z,9.55
2018-03-20T13:01:12.974Z,9.43
2018-03-20T13:03:40.552Z,9.65
2018-03-20T13:06:08.130Z,10.18
2018-03-20T13:08:35.650Z,9.23
2018-03-20T13:11:03.187Z,9.85
2018-03-20T13:13:31.477Z,11.02
2018-03-20T13:15:58.984Z,10.40
2018-03-20T13:18:26.527Z,10.18
2018-03-20T13:20:54.060Z,9.98
2018-03-20T13:23:21.667Z,10.00
2018-03-20T13:25:50.750Z,10.05
2018-03-20T13:28:18.294Z,10.75
2018-03-20T13:30:45.851Z,11.15
2018-03-20T13:33:13.367Z,11.15
2018-03-20T13:35:41.664Z,10.88
2018-03-20T13:38:09.191Z,11.30
2018-03-20T13:40:36.724Z,11.70
2018-03-20T13:43:04.289Z,11.32
2018-03-20T13:45:31.832Z,11.45
2018-03-20T13:47:59.367Z,10.75
2018-03-20T13:50:26.993Z,10.88
2018-03-20T13:52:54.451Z,10.85
2018-03-20T13:55:22.747Z,10.73
2018-03-20T13:57:51.107Z,11.38
2018-03-20T14:00:19.391Z,11.40
2018-03-20T14:02:46.915Z,11.07
2018-03-20T14:05:14.448Z,10.57
2018-03-20T14:07:41.974Z,11.55
2018-03-20T14:10:09.499Z,12.15
2018-03-20T14:12:37.824Z,11.70
2018-03-20T14:15:05.347Z,10.80
2018-03-20T14:17:33.674Z,12.35
2018-03-20T14:20:01.207Z,11.10
2018-03-20T14:22:28.731Z,12.35
2018-03-20T14:24:56.262Z,11.50
2018-03-20T14:27:23.767Z,12.48
2018-03-20T14:29:51.314Z,11.70
2018-03-20T14:32:19.641Z,12.55
2018-03-20T14:34:47.172Z,12.63
2018-03-20T14:37:15.478Z,12.15
2018-03-20T14:39:42.988Z,12.05
2018-03-20T14:42:11.321Z,11.73
2018-03-20T14:44:38.890Z,11.80
2018-03-20T14:47:06.438Z,13.82
2018-03-20T14:49:33.982Z,13.60
2018-03-20T14:52:01.487Z,13.53
2018-03-20T14:54:29.022Z,13.10
2018-03-20T14:56:56.556Z,13.48
2018-03-20T14:59:24.122Z,14.38
2018-03-20T15:01:51.708Z,13.27
2018-03-20T15:04:19.998Z,15.07
2018-03-20T15:06:47.552Z,14.80
2018-03-20T15:09:15.071Z,16.30
2018-03-20T15:11:42.612Z,15.98
2018-03-20T15:14:10.887Z,16.92
2018-03-20T15:16:38.426Z,17.75
2018-03-20T15:19:09.741Z,18.77
2018-03-20T15:21:37.352Z,20.88
2018-03-20T15:24:05.697Z,22.13
2018-03-20T15:26:33.203Z,22.80
2018-03-20T15:29:00.713Z,22.65
2018-03-20T15:31:28.269Z,21.45
2018-03-20T15:33:55.767Z,27.05
2018-03-20T15:36:24.087Z,21.85
2018-03-20T15:38:51.666Z,23.05
2018-03-20T15:41:19.199Z,22.58
2018-03-20T15:43:46.723Z,22.45
2018-03-20T15:46:15.001Z,21.92
2018-03-20T15:48:43.282Z,22.90
2018-03-20T15:51:10.809Z,23.00
2018-03-20T15:53:38.328Z,22.15
2018-03-20T15:56:05.845Z,21.45
2018-03-20T15:58:34.123Z,22.70
2018-03-20T16:01:02.407Z,21.25
2018-03-20T16:03:30.708Z,21.87
2018-03-20T16:05:58.261Z,21.62
2018-03-20T16:08:25.793Z,22.35
2018-03-20T16:10:54.066Z,21.62
2018-03-20T16:13:21.603Z,19.80
2018-03-20T16:15:49.113Z,20.25
2018-03-20T16:18:16.678Z,19.60
2018-03-20T16:20:44.239Z,19.75
2018-03-20T16:23:11.785Z,20.80
2018-03-20T16:25:39.397Z,20.02
2018-03-20T16:28:06.872Z,18.23
2018-03-20T16:30:34.381Z,19.80
2018-03-20T16:33:01.911Z,19.80
2018-03-20T16:35:29.440Z,18.95
2018-03-20T16:37:56.971Z,19.58
2018-03-20T16:40:24.494Z,18.35
2018-03-20T16:42:52.061Z,16.15
2018-03-20T16:45:20.331Z,16.98
2018-03-20T16:47:47.860Z,16.12
2018-03-20T16:50:16.166Z,17.33
2018-03-20T16:52:43.715Z,16.58
2018-03-20T16:55:11.990Z,16.85
2018-03-20T16:57:40.258Z,16.67
2018-03-20T17:00:08.568Z,15.65
2018-03-20T17:02:36.068Z,14.27
2018-03-20T17:05:03.614Z,15.75
2018-03-20T17:07:31.114Z,15.15
2018-03-20T17:09:59.413Z,14.25
2018-03-20T17:12:26.918Z,17.75
2018-03-20T17:14:54.455Z,16.40
2018-03-20T17:17:21.963Z,16.52
2018-03-20T17:19:50.231Z,16.17
2018-03-20T17:22:18.524Z,16.23
2018-03-20T17:24:46.818Z,15.95
2018-03-20T17:27:14.346Z,15.75
2018-03-20T17:29:42.623Z,15.60
2018-03-20T17:32:10.960Z,15.52
2018-03-20T17:34:38.539Z,17.12
2018-03-20T17:37:06.022Z,17.30
2018-03-20T17:39:34.336Z,17.62
2018-03-20T17:42:01.868Z,18.55
2018-03-20T17:44:30.131Z,17.73
2018-03-20T17:46:58.429Z,17.27
2018-03-20T17:49:25.976Z,17.73
2018-03-20T17:51:53.514Z,16.42
2018-03-20T17:54:21.039Z,18.02
2018-03-20T17:56:48.559Z,16.27
2018-03-20T17:59:16.097Z,16.17
2018-03-20T18:01:44.419Z,16.05
2018-03-20T18:04:11.966Z,15.60
2018-03-20T18:06:39.548Z,15.70
2018-03-20T18:09:07.083Z,15.40
2018-03-20T18:11:34.588Z,15.73
2018-03-20T18:14:02.119Z,15.55
2018-03-20T18:16:29.617Z,14.23
2018-03-20T18:18:57.168Z,17.62
2018-03-20T18:21:24.714Z,16.80
2018-03-20T18:23:52.237Z,15.75
2018-03-20T18:26:19.736Z,17.60
2018-03-20T18:28:47.248Z,15.93
2018-03-20T18:31:14.800Z,15.00
2018-03-20T18:33:42.341Z,15.88
2018-03-20T18:36:10.659Z,13.02
2018-03-20T18:38:38.215Z,17.58
2018-03-20T18:41:05.789Z,16.20
2018-03-20T18:43:33.345Z,16.67
2018-03-20T18:46:00.899Z,16.45
2018-03-20T18:48:28.440Z,16.12
2018-03-20T18:50:55.980Z,16.65
2018-03-20T18:53:24.300Z,16.62
2018-03-20T18:55:51.856Z,18.20
2018-03-20T18:58:19.845Z,19.15
2018-03-20T19:00:47.842Z,20.65
2018-03-20T19:03:15.412Z,18.35
2018-03-20T19:05:43.707Z,18.85
2018-03-20T19:08:11.307Z,18.50
2018-03-20T19:10:39.271Z,17.20
2018-03-20T19:13:07.061Z,16.15
2018-03-20T19:15:34.627Z,14.05
2018-03-20T19:18:02.178Z,13.90
2018-03-20T19:20:29.760Z,14.13
2018-03-20T19:22:58.202Z,15.20
2018-03-20T19:25:25.740Z,15.50
2018-03-20T19:27:53.277Z,16.10
2018-03-20T19:30:20.885Z,16.52
2018-03-20T19:32:49.008Z,15.55
2018-03-20T19:35:16.684Z,16.27
2018-03-20T19:37:44.291Z,15.82
2018-03-20T19:40:11.806Z,17.10
2018-03-20T19:42:40.018Z,16.17
2018-03-20T19:45:07.951Z,17.65
2018-03-20T19:47:35.595Z,17.40
2018-03-20T19:50:03.201Z,18.02
2018-03-20T19:52:30.811Z,18.60
2018-03-20T19:54:59.007Z,16.65
2018-03-20T19:57:26.620Z,15.18
2018-03-20T19:59:54.184Z,15.38
2018-03-20T20:02:22.498Z,14.85
2018-03-20T20:04:50.216Z,14.75
2018-03-20T20:07:18.153Z,13.43
2018-03-20T20:09:45.829Z,13.80
2018-03-20T20:12:15.172Z,13.32
2018-03-20T20:14:42.864Z,12.57
2018-03-20T20:17:10.459Z,14.27
2018-03-20T20:19:38.896Z,14.93
2018-03-20T20:22:06.514Z,18.00
2018-03-20T20:24:34.067Z,16.85
2018-03-20T20:27:01.642Z,17.62
2018-03-20T20:29:30.072Z,17.48
2018-03-20T20:31:57.749Z,16.92
2018-03-20T20:34:25.297Z,16.12
2018-03-20T20:36:52.914Z,16.25
2018-03-20T20:39:20.780Z,17.05
2018-03-20T20:41:48.412Z,15.88
2018-03-20T20:44:15.966Z,15.30
2018-03-20T20:46:43.487Z,14.15
2018-03-20T20:49:11.393Z,13.98
2018-03-20T20:51:39.006Z,14.00
2018-03-20T20:54:06.680Z,14.55
2018-03-20T20:56:34.276Z,14.43
2018-03-20T20:59:02.076Z,15.85
2018-03-20T21:01:29.869Z,14.38
2018-03-20T21:03:57.516Z,14.65
2018-03-20T21:06:25.054Z,14.20
2018-03-20T21:08:53.428Z,15.15
2018-03-20T21:11:22.088Z,14.80
2018-03-20T21:13:50.098Z,14.63
2018-03-20T21:16:17.719Z,14.00
2018-03-20T21:18:45.260Z,14.75
2018-03-20T21:21:12.867Z,15.13
2018-03-20T21:23:41.524Z,15.77
2018-03-20T21:26:09.055Z,15.60
2018-03-20T21:28:36.566Z,16.50
2018-03-20T21:31:04.894Z,17.55
2018-03-20T21:33:32.526Z,16.08
2018-03-20T21:36:00.105Z,15.75
2018-03-20T21:38:27.654Z,17.60
2018-03-20T21:40:55.202Z,17.48
2018-03-20T21:43:22.861Z,17.80
2018-03-20T21:45:50.560Z,18.52
2018-03-20T21:48:18.094Z,18.58
2018-03-20T21:50:45.600Z,19.75
2018-03-20T21:53:13.227Z,19.67
2018-03-20T21:55:40.748Z,20.37
2018-03-20T21:58:08.300Z,19.02
2018-03-20T22:00:36.591Z,21.15
2018-03-20T22:03:04.905Z,21.60
2018-03-20T22:05:32.524Z,21.12
2018-03-20T22:08:00.812Z,19.20
2018-03-20T22:10:28.341Z,19.65
2018-03-20T22:12:55.872Z,19.83
2018-03-20T22:15:23.500Z,19.30
2018-03-20T22:17:51.037Z,19.15
2018-03-20T22:20:19.306Z,21.45
2018-03-20T22:22:47.609Z,21.37
2018-03-20T22:25:15.198Z,19.92
2018-03-20T22:27:42.706Z,19.10
2018-03-20T22:30:10.986Z,18.45
2018-03-20T22:32:39.262Z,19.27
2018-03-20T22:35:07.579Z,19.10
2018-03-20T22:37:35.115Z,20.65
2018-03-20T22:40:02.639Z,20.50
2018-03-20T22:42:30.172Z,20.42
2018-03-20T22:44:57.699Z,19.52
2018-03-20T22:47:25.232Z,18.12
2018-03-20T22:49:53.528Z,20.20
2018-03-20T22:52:21.094Z,19.15
2018-03-20T22:54:48.624Z,18.27
2018-03-20T22:57:16.134Z,18.60
2018-03-20T22:59:43.652Z,18.92
2018-03-20T23:02:11.946Z,19.65
2018-03-20T23:04:39.488Z,21.02
2018-03-20T23:07:06.996Z,19.73
2018-03-20T23:09:34.528Z,20.25
2018-03-20T23:12:02.070Z,20.25
2018-03-20T23:14:29.567Z,21.23
2018-03-20T23:16:57.064Z,21.30
2018-03-20T23:19:25.336Z,23.40
2018-03-20T23:21:53.640Z,21.80
2018-03-20T23:24:21.146Z,22.27
2018-03-20T23:26:48.685Z,20.35
2018-03-20T23:29:16.199Z,20.73
2018-03-20T23:31:44.477Z,18.50
2018-03-20T23:34:12.772Z,19.35
2018-03-20T23:36:40.279Z,17.50
2018-03-20T23:39:07.807Z,18.70
2018-03-20T23:41:35.348Z,18.40
2018-03-20T23:44:02.887Z,19.17
2018-03-20T23:46:31.151Z,19.37
2018-03-20T23:48:59.443Z,18.25
2018-03-20T23:51:27.741Z,18.83
2018-03-20T23:53:55.256Z,20.00
2018-03-20T23:56:22.791Z,19.65
2018-03-20T23:58:50.293Z,20.05
